createdAt,value
2022-09-28T00:01:16.477Z,4.80
2022-09-28T00:03:45.001Z,5.80
2022-09-28T00:06:16.240Z,5.57
2022-09-28T00:08:43.520Z,5.53
2022-09-28T00:11:15.508Z,5.73
2022-09-28T00:13:44.033Z,5.50
2022-09-28T00:16:16.802Z,5.77
2022-09-28T00:18:47.855Z,5.47
2022-09-28T00:21:21.542Z,5.73
2022-09-28T00:24:10.613Z,6.00
2022-09-28T00:26:41.109Z,7.83
2022-09-28T00:29:20.010Z,6.00
2022-09-28T00:32:03.011Z,6.80
2022-09-28T00:34:42.670Z,7.27
2022-09-28T00:37:32.109Z,7.23
2022-09-28T00:39:59.536Z,6.17
2022-09-28T00:42:27.722Z,6.33
2022-09-28T00:45:01.208Z,6.43
2022-09-28T00:48:09.632Z,6.30
2022-09-28T00:50:43.977Z,7.17
2022-09-28T00:53:25.471Z,6.60
2022-09-28T00:56:03.736Z,6.90
2022-09-28T00:58:59.916Z,6.40
2022-09-28T01:01:35.316Z,6.27
2022-09-28T01:04:04.906Z,5.90
2022-09-28T01:06:38.046Z,6.77
2022-09-28T01:09:10.426Z,6.40
2022-09-28T01:11:39.939Z,7.50
2022-09-28T01:14:13.208Z,6.90
2022-09-28T01:16:55.919Z,7.33
2022-09-28T01:19:58.843Z,7.30
2022-09-28T01:22:34.901Z,9.47
2022-09-28T01:25:38.671Z,10.47
2022-09-28T01:28:19.325Z,7.93
2022-09-28T01:31:08.088Z,7.67
2022-09-28T01:33:44.974Z,7.97
2022-09-28T01:36:21.013Z,8.73
2022-09-28T01:38:55.427Z,10.23
2022-09-28T01:41:28.727Z,11.43
2022-09-28T01:44:02.922Z,9.83
2022-09-28T01:46:44.748Z,10.67
2022-09-28T01:49:35.670Z,11.93
2022-09-28T01:52:13.706Z,12.50
2022-09-28T01:55:12.299Z,11.57
2022-09-28T01:58:01.583Z,11.27
2022-09-28T02:00:29.323Z,11.93
2022-09-28T02:03:10.922Z,10.50
2022-09-28T02:05:54.917Z,10.13
2022-09-28T02:08:36.074Z,8.70
2022-09-28T02:11:08.782Z,10.03
2022-09-28T02:13:47.099Z,9.90
2022-09-28T02:16:46.368Z,7.67
2022-09-28T02:19:19.214Z,7.90
2022-09-28T02:22:12.431Z,9.77
2022-09-28T02:24:59.220Z,8.17
2022-09-28T02:27:40.931Z,7.80
2022-09-28T02:30:09.515Z,8.77
2022-09-28T02:32:42.607Z,10.77
2022-09-28T02:35:16.752Z,9.33
2022-09-28T02:37:46.062Z,8.63
2022-09-28T02:40:19.964Z,7.87
2022-09-28T02:43:16.701Z,8.13
2022-09-28T02:46:09.663Z,6.67
2022-09-28T02:49:23.733Z,6.90
2022-09-28T02:52:22.491Z,6.40
2022-09-28T02:55:32.223Z,6.10
2022-09-28T02:58:44.627Z,5.80
2022-09-28T03:01:38.935Z,8.27
2022-09-28T03:04:35.215Z,7.23
2022-09-28T03:07:12.118Z,6.10
2022-09-28T03:10:23.955Z,5.67
2022-09-28T03:12:53.870Z,6.10
2022-09-28T03:15:32.037Z,6.40
2022-09-28T03:18:00.589Z,5.37
2022-09-28T03:20:32.351Z,7.97
2022-09-28T03:23:23.349Z,6.77
2022-09-28T03:25:48.302Z,5.60
2022-09-28T03:28:15.430Z,5.70
2022-09-28T03:30:43.448Z,5.70
2022-09-28T03:33:10.958Z,6.23
2022-09-28T03:35:38.718Z,4.63
2022-09-28T03:38:05.711Z,5.27
2022-09-28T03:40:36.690Z,6.27
2022-09-28T03:43:03.841Z,5.13
2022-09-28T03:45:31.783Z,4.57
2022-09-28T03:47:59.464Z,4.33
2022-09-28T03:50:26.806Z,4.93
2022-09-28T03:52:54.282Z,4.60
2022-09-28T03:55:21.308Z,5.57
2022-09-28T03:58:00.256Z,4.40
2022-09-28T04:00:38.269Z,6.10
2022-09-28T04:03:14.415Z,5.03
2022-09-28T04:05:52.969Z,4.47
2022-09-28T04:08:20.510Z,4.60
2022-09-28T04:10:48.046Z,4.53
2022-09-28T04:13:15.920Z,4.80
2022-09-28T04:15:43.903Z,5.40
2022-09-28T04:18:13.112Z,5.23
2022-09-28T04:21:06.984Z,6.77
2022-09-28T04:23:40.308Z,5.53
2022-09-28T04:26:16.731Z,5.30
2022-09-28T04:29:09.366Z,4.20
2022-09-28T04:31:51.195Z,5.43
2022-09-28T04:34:22.537Z,7.93
2022-09-28T04:36:51.181Z,5.07
2022-09-28T04:39:22.694Z,7.33
2022-09-28T04:41:54.353Z,5.13
2022-09-28T04:44:21.333Z,6.33
2022-09-28T04:46:50.781Z,5.87
2022-09-28T04:49:38.477Z,5.73
2022-09-28T04:52:17.228Z,5.90
2022-09-28T04:54:47.577Z,5.80
2022-09-28T04:57:14.599Z,5.03
2022-09-28T04:59:41.743Z,5.43
2022-09-28T05:02:09.113Z,4.97
2022-09-28T05:04:42.219Z,4.87
2022-09-28T05:07:17.209Z,5.00
2022-09-28T05:09:47.743Z,5.03
2022-09-28T05:12:15.619Z,5.30
2022-09-28T05:14:42.812Z,5.20
2022-09-28T05:17:10.982Z,5.27
2022-09-28T05:19:53.546Z,5.93
2022-09-28T05:22:20.589Z,5.17
2022-09-28T05:24:47.782Z,5.20
2022-09-28T05:27:15.195Z,5.97
2022-09-28T05:29:46.806Z,5.63
2022-09-28T05:32:52.615Z,8.00
2022-09-28T05:35:32.327Z,5.33
2022-09-28T05:38:05.505Z,7.23
2022-09-28T05:40:35.711Z,5.93
2022-09-28T05:43:02.961Z,6.10
2022-09-28T05:45:34.561Z,6.03
2022-09-28T05:48:03.401Z,8.87
2022-09-28T05:50:33.066Z,7.47
2022-09-28T05:53:03.659Z,6.83
2022-09-28T05:55:35.052Z,7.60
2022-09-28T05:58:05.934Z,7.57
2022-09-28T06:00:35.257Z,7.77
2022-09-28T06:03:11.352Z,9.90
2022-09-28T06:05:39.617Z,8.10
2022-09-28T06:08:10.675Z,8.23
2022-09-28T06:10:41.038Z,10.00
2022-09-28T06:13:08.480Z,9.40
2022-09-28T06:15:36.954Z,9.20
2022-09-28T06:18:09.604Z,8.53
2022-09-28T06:20:41.987Z,8.73
2022-09-28T06:23:14.524Z,8.63
2022-09-28T06:25:41.714Z,9.03
2022-09-28T06:28:14.411Z,8.57
2022-09-28T06:30:44.141Z,8.50
2022-09-28T06:33:16.959Z,7.90
2022-09-28T06:35:43.980Z,9.10
2022-09-28T06:38:11.123Z,9.03
2022-09-28T06:40:38.794Z,10.23
2022-09-28T06:43:15.373Z,9.03
2022-09-28T06:46:02.615Z,8.63
2022-09-28T06:48:48.931Z,12.00
2022-09-28T06:51:36.924Z,12.57
2022-09-28T06:54:26.503Z,9.43
2022-09-28T06:57:00.622Z,8.70
2022-09-28T06:59:31.503Z,12.10
2022-09-28T07:02:00.314Z,9.60
2022-09-28T07:04:47.386Z,8.63
2022-09-28T07:07:33.934Z,11.77
2022-09-28T07:10:11.709Z,10.50
2022-09-28T07:12:47.560Z,9.93
2022-09-28T07:15:38.068Z,16.47
2022-09-28T07:18:07.519Z,10.30
2022-09-28T07:20:49.124Z,39.17
2022-09-28T07:23:20.466Z,43.50
2022-09-28T07:26:08.792Z,25.40
2022-09-28T07:29:02.440Z,8.10
2022-09-28T07:31:44.906Z,7.53
2022-09-28T07:34:35.949Z,8.43
2022-09-28T07:37:07.092Z,7.13
2022-09-28T07:39:56.200Z,7.00
2022-09-28T07:42:23.618Z,6.40
2022-09-28T07:44:51.371Z,6.33
2022-09-28T07:47:19.125Z,7.60
2022-09-28T07:50:21.579Z,6.93
2022-09-28T07:53:15.295Z,10.87
2022-09-28T07:56:01.969Z,7.37
2022-09-28T07:58:43.089Z,11.60
2022-09-28T08:01:39.156Z,6.87
2022-09-28T08:04:08.211Z,9.30
2022-09-28T08:06:36.299Z,6.73
2022-09-28T08:09:08.247Z,7.37
2022-09-28T08:11:59.661Z,6.87
2022-09-28T08:14:45.543Z,5.97
2022-09-28T08:17:27.024Z,8.37
2022-09-28T08:20:15.098Z,5.83
2022-09-28T08:22:42.623Z,9.67
2022-09-28T08:25:09.669Z,6.43
2022-09-28T08:27:37.029Z,5.10
2022-09-28T08:30:09.099Z,7.53
2022-09-28T08:32:49.349Z,4.30
2022-09-28T08:35:34.910Z,5.73
2022-09-28T08:38:31.673Z,8.70
2022-09-28T08:41:23.520Z,4.87
2022-09-28T08:44:24.329Z,4.07
2022-09-28T08:47:07.462Z,4.13
2022-09-28T08:50:02.709Z,4.63
2022-09-28T08:52:40.598Z,4.57
2022-09-28T08:55:37.835Z,7.03
2022-09-28T08:58:22.370Z,5.00
2022-09-28T09:00:52.757Z,5.87
2022-09-28T09:03:32.050Z,5.60
2022-09-28T09:06:31.435Z,4.10
2022-09-28T09:09:21.768Z,7.47
2022-09-28T09:12:09.539Z,4.87
2022-09-28T09:15:15.226Z,4.93
2022-09-28T09:18:03.461Z,5.27
2022-09-28T09:21:06.198Z,4.93
2022-09-28T09:23:45.286Z,3.70
2022-09-28T09:26:35.449Z,4.80
2022-09-28T09:29:38.763Z,2.77
2022-09-28T09:32:12.053Z,3.47
2022-09-28T09:35:21.222Z,4.17
2022-09-28T09:38:32.714Z,4.00
2022-09-28T09:42:02.179Z,4.17
2022-09-28T09:45:09.592Z,3.60
2022-09-28T09:48:44.980Z,4.00
2022-09-28T09:52:09.662Z,3.60
2022-09-28T09:54:48.291Z,3.93
2022-09-28T09:57:42.766Z,4.30
2022-09-28T10:00:30.054Z,3.13
2022-09-28T10:03:24.944Z,6.30
2022-09-28T10:06:27.588Z,2.20
2022-09-28T10:09:10.124Z,3.33
2022-09-28T10:11:44.754Z,2.87
2022-09-28T10:14:25.612Z,4.53
2022-09-28T10:17:03.907Z,3.40
2022-09-28T10:20:13.408Z,4.93
2022-09-28T10:23:03.702Z,3.50
2022-09-28T10:25:36.417Z,4.83
2022-09-28T10:28:10.153Z,2.40
2022-09-28T10:30:42.004Z,3.73
2022-09-28T10:33:34.536Z,4.10
2022-09-28T10:36:07.315Z,3.63
2022-09-28T10:38:35.317Z,3.90
2022-09-28T10:41:13.648Z,3.87
2022-09-28T10:44:10.865Z,2.90
2022-09-28T10:46:57.026Z,3.47
2022-09-28T10:49:26.337Z,2.37
2022-09-28T10:51:57.503Z,2.70
2022-09-28T10:54:34.315Z,3.43
2022-09-28T10:57:01.560Z,4.43
2022-09-28T10:59:41.838Z,2.43
2022-09-28T11:02:37.112Z,4.23
2022-09-28T11:05:24.230Z,3.95
2022-09-28T11:08:00.917Z,3.05
2022-09-28T11:10:39.011Z,4.73
2022-09-28T11:13:14.208Z,2.90
2022-09-28T11:15:46.451Z,2.60
2022-09-28T11:18:32.409Z,4.13
2022-09-28T11:21:25.864Z,2.30
2022-09-28T11:24:25.851Z,2.30
2022-09-28T11:27:00.122Z,2.13
2022-09-28T11:29:41.966Z,3.00
2022-09-28T11:32:44.890Z,4.05
2022-09-28T11:35:56.140Z,2.80
2022-09-28T11:38:37.802Z,3.20
2022-09-28T11:42:04.987Z,4.82
2022-09-28T11:44:46.875Z,8.02
2022-09-28T11:47:48.954Z,3.83
2022-09-28T11:50:27.743Z,1.75
2022-09-28T11:56:41.983Z,2.72
2022-09-28T11:59:27.648Z,3.90
2022-09-28T12:02:31.680Z,3.22
2022-09-28T12:05:22.704Z,3.35
2022-09-28T12:08:13.227Z,2.58
2022-09-28T12:11:03.906Z,3.17
2022-09-28T12:14:01.172Z,2.90
2022-09-28T12:17:04.819Z,1.80
2022-09-28T12:19:48.691Z,3.40
2022-09-28T12:22:31.984Z,3.03
2022-09-28T12:25:01.938Z,1.95
2022-09-28T12:28:04.443Z,1.77
2022-09-28T12:30:40.750Z,2.25
2022-09-28T12:33:15.492Z,2.47
2022-09-28T12:36:19.373Z,2.85
2022-09-28T12:39:27.059Z,5.60
2022-09-28T12:42:29.443Z,2.55
2022-09-28T12:45:38.715Z,2.08
2022-09-28T12:48:45.938Z,1.70
2022-09-28T12:51:52.762Z,2.53
2022-09-28T12:54:46.739Z,2.50
2022-09-28T12:58:07.411Z,1.45
2022-09-28T13:01:12.022Z,1.07
2022-09-28T13:03:47.952Z,1.53
2022-09-28T13:06:42.846Z,2.57
2022-09-28T13:09:27.775Z,1.57
2022-09-28T13:12:31.981Z,0.93
2022-09-28T13:15:35.859Z,0.97
2022-09-28T13:18:27.465Z,2.00
2022-09-28T13:21:28.423Z,1.23
2022-09-28T13:24:20.735Z,2.27
2022-09-28T13:26:50.359Z,1.37
2022-09-28T13:29:20.733Z,2.80
2022-09-28T13:31:58.149Z,1.13
2022-09-28T13:34:33.444Z,3.63
2022-09-28T13:37:19.898Z,1.07
2022-09-28T13:39:56.797Z,0.90
2022-09-28T13:42:37.833Z,1.80
2022-09-28T13:45:19.762Z,2.53
2022-09-28T13:48:15.971Z,1.23
2022-09-28T13:51:39.434Z,2.50
2022-09-28T13:54:29.113Z,0.90
2022-09-28T13:57:27.273Z,0.90
2022-09-28T14:00:10.848Z,0.97
2022-09-28T14:03:33.837Z,0.30
2022-09-28T14:06:20.661Z,0.40
2022-09-28T14:09:12.867Z,1.40
2022-09-28T14:12:02.618Z,0.73
2022-09-28T14:14:52.687Z,0.80
2022-09-28T14:17:19.532Z,2.97
2022-09-28T14:20:00.739Z,1.57
2022-09-28T14:23:09.052Z,1.73
2022-09-28T14:26:20.853Z,2.33
2022-09-28T14:29:32.854Z,0.90
2022-09-28T14:32:22.640Z,0.63
2022-09-28T14:34:59.903Z,0.87
2022-09-28T14:37:58.128Z,0.93
2022-09-28T14:40:50.906Z,1.00
2022-09-28T14:43:45.065Z,1.43
2022-09-28T14:46:12.869Z,1.10
2022-09-28T14:49:05.783Z,1.30
2022-09-28T14:51:35.503Z,0.70
2022-09-28T14:54:08.176Z,2.33
2022-09-28T14:56:53.312Z,1.70
2022-09-28T14:59:27.277Z,2.90
2022-09-28T15:02:03.252Z,1.10
2022-09-28T15:04:34.565Z,1.98
2022-09-28T15:07:05.849Z,1.35
2022-09-28T15:09:38.745Z,1.48
2022-09-28T15:12:12.158Z,2.97
2022-09-28T15:14:49.864Z,1.77
2022-09-28T15:17:23.531Z,1.20
2022-09-28T15:20:33.398Z,1.05
2022-09-28T15:23:00.577Z,0.60
2022-09-28T15:25:33.026Z,0.63
2022-09-28T15:28:17.654Z,0.50
2022-09-28T15:30:45.691Z,1.13
2022-09-28T15:34:00.756Z,0.23
2022-09-28T15:36:34.705Z,1.02
2022-09-28T15:39:12.301Z,0.47
2022-09-28T15:41:40.719Z,0.40
2022-09-28T15:44:14.663Z,0.53
2022-09-28T15:46:52.092Z,0.70
2022-09-28T15:49:39.072Z,1.83
2022-09-28T15:52:09.138Z,0.60
2022-09-28T15:54:44.110Z,0.93
2022-09-28T15:57:37.412Z,0.50
2022-09-28T16:00:25.636Z,0.47
2022-09-28T16:03:09.293Z,1.00
2022-09-28T16:06:05.978Z,0.40
2022-09-28T16:08:36.081Z,1.27
2022-09-28T16:11:37.851Z,0.33
2022-09-28T16:14:14.752Z,0.47
2022-09-28T16:16:51.705Z,0.30
2022-09-28T16:19:36.881Z,0.83
2022-09-28T16:22:08.096Z,0.40
2022-09-28T16:24:38.824Z,0.50
2022-09-28T16:27:23.044Z,0.33
2022-09-28T16:30:21.657Z,0.90
2022-09-28T16:33:27.315Z,0.40
2022-09-28T16:36:01.927Z,0.90
2022-09-28T16:38:28.879Z,0.93
2022-09-28T16:41:02.417Z,0.30
2022-09-28T16:43:36.594Z,0.30
2022-09-28T16:46:12.097Z,0.30
2022-09-28T16:49:06.750Z,0.68
2022-09-28T16:51:34.062Z,0.25
2022-09-28T16:54:34.895Z,0.40
2022-09-28T16:57:04.291Z,0.30
2022-09-28T16:59:32.915Z,1.17
2022-09-28T17:02:00.157Z,0.40
2022-09-28T17:04:27.387Z,1.75
2022-09-28T17:06:56.647Z,0.50
2022-09-28T17:09:23.971Z,0.40
2022-09-28T17:11:56.609Z,0.60
2022-09-28T17:14:24.454Z,0.30
2022-09-28T17:17:08.131Z,0.20
2022-09-28T17:19:36.913Z,1.70
2022-09-28T17:22:03.805Z,0.63
2022-09-28T17:24:33.661Z,0.30
2022-09-28T17:27:01.118Z,0.50
2022-09-28T17:29:28.525Z,0.83
2022-09-28T17:31:59.305Z,0.30
2022-09-28T17:34:26.237Z,0.40
2022-09-28T17:36:55.623Z,0.93
2022-09-28T17:39:25.034Z,0.67
2022-09-28T17:41:51.904Z,0.50
2022-09-28T17:44:19.834Z,0.40
2022-09-28T17:46:49.808Z,1.53
2022-09-28T17:49:17.448Z,0.80
2022-09-28T17:51:44.539Z,0.60
2022-09-28T17:54:13.555Z,0.67
2022-09-28T17:56:40.563Z,1.03
2022-09-28T17:59:18.604Z,0.70
2022-09-28T18:01:45.708Z,0.47
2022-09-28T18:04:33.344Z,0.87
2022-09-28T18:07:00.693Z,0.50
2022-09-28T18:09:27.638Z,0.60
2022-09-28T18:12:01.091Z,2.77
2022-09-28T18:14:28.528Z,0.70
2022-09-28T18:16:58.060Z,1.87
2022-09-28T18:19:28.654Z,2.43
2022-09-28T18:21:58.971Z,0.60
2022-09-28T18:24:26.033Z,2.03
2022-09-28T18:26:55.526Z,0.93
2022-09-28T18:29:22.524Z,0.90
2022-09-28T18:31:49.480Z,0.70
2022-09-28T18:34:16.619Z,0.67
2022-09-28T18:36:44.098Z,0.80
2022-09-28T18:39:11.609Z,3.70
2022-09-28T18:41:38.689Z,1.50
2022-09-28T18:44:08.612Z,1.10
2022-09-28T18:46:36.599Z,1.33
2022-09-28T18:49:06.474Z,1.63
2022-09-28T18:51:33.662Z,3.37
2022-09-28T18:54:06.600Z,1.87
2022-09-28T18:56:37.137Z,1.50
2022-09-28T18:59:12.114Z,2.47
2022-09-28T19:01:41.464Z,1.47
2022-09-28T19:04:10.880Z,2.27
2022-09-28T19:06:41.370Z,2.30
2022-09-28T19:09:09.377Z,5.67
2022-09-28T19:11:36.959Z,2.50
2022-09-28T19:14:03.936Z,2.10
2022-09-28T19:16:34.076Z,5.07
2022-09-28T19:19:03.097Z,3.03
2022-09-28T19:21:33.193Z,2.80
2022-09-28T19:24:04.290Z,4.27
2022-09-28T19:26:32.806Z,3.63
2022-09-28T19:29:01.071Z,5.10
2022-09-28T19:31:29.728Z,4.83
2022-09-28T19:33:57.219Z,6.03
2022-09-28T19:36:28.423Z,5.53
2022-09-28T19:39:03.378Z,6.17
2022-09-28T19:41:49.539Z,5.37
2022-09-28T19:44:27.508Z,6.30
2022-09-28T19:47:06.794Z,6.70
2022-09-28T19:49:37.343Z,6.90
2022-09-28T19:52:15.669Z,7.03
2022-09-28T19:55:00.039Z,6.77
2022-09-28T19:57:32.822Z,6.47
2022-09-28T20:00:03.144Z,5.67
2022-09-28T20:02:35.042Z,6.13
2022-09-28T20:05:02.309Z,5.90
2022-09-28T20:07:32.702Z,4.90
2022-09-28T20:09:59.712Z,4.53
2022-09-28T20:12:26.659Z,5.90
2022-09-28T20:14:54.997Z,4.83
2022-09-28T20:17:22.000Z,5.33
2022-09-28T20:19:51.599Z,6.60
2022-09-28T20:22:19.957Z,7.03
2022-09-28T20:24:47.019Z,5.83
2022-09-28T20:27:13.854Z,4.87
2022-09-28T20:29:42.911Z,5.00
2022-09-28T20:32:09.760Z,5.43
2022-09-28T20:34:36.709Z,5.60
2022-09-28T20:37:03.843Z,7.97
2022-09-28T20:39:33.328Z,5.10
2022-09-28T20:42:00.268Z,5.60
2022-09-28T20:44:27.624Z,5.70
2022-09-28T20:46:57.403Z,5.73
2022-09-28T20:49:24.427Z,6.67
2022-09-28T20:51:51.434Z,6.23
2022-09-28T20:54:18.498Z,6.20
2022-09-28T20:56:47.960Z,7.47
2022-09-28T20:59:15.043Z,6.87
2022-09-28T21:01:42.207Z,8.53
2022-09-28T21:04:10.749Z,5.77
2022-09-28T21:06:41.222Z,6.03
2022-09-28T21:09:11.120Z,6.33
2022-09-28T21:11:39.808Z,6.70
2022-09-28T21:14:09.636Z,5.73
2022-09-28T21:16:36.971Z,7.03
2022-09-28T21:19:04.578Z,7.30
2022-09-28T21:21:33.123Z,5.60
2022-09-28T21:24:00.280Z,6.23
2022-09-28T21:26:32.302Z,5.43
2022-09-28T21:29:04.879Z,5.67
2022-09-28T21:31:45.763Z,5.00
2022-09-28T21:34:20.313Z,5.17
2022-09-28T21:36:51.564Z,6.07
2022-09-28T21:39:20.026Z,5.23
2022-09-28T21:41:46.885Z,4.90
2022-09-28T21:44:13.806Z,6.83
2022-09-28T21:46:40.961Z,6.57
2022-09-28T21:49:09.927Z,5.30
2022-09-28T21:51:37.962Z,7.90
2022-09-28T21:54:05.544Z,6.90
2022-09-28T21:56:32.592Z,8.03
2022-09-28T21:59:01.273Z,6.93
2022-09-28T22:01:30.436Z,6.60
2022-09-28T22:03:57.761Z,6.30
2022-09-28T22:06:29.696Z,6.83
2022-09-28T22:08:57.600Z,6.03
2022-09-28T22:11:28.073Z,6.70
2022-09-28T22:13:59.676Z,5.73
2022-09-28T22:16:46.562Z,6.50
2022-09-28T22:19:13.548Z,5.87
2022-09-28T22:21:40.449Z,6.73
2022-09-28T22:24:07.899Z,5.43
2022-09-28T22:26:37.486Z,6.77
2022-09-28T22:29:09.157Z,7.40
2022-09-28T22:31:39.877Z,7.17
2022-09-28T22:34:09.300Z,7.07
2022-09-28T22:36:36.453Z,6.67
2022-09-28T22:39:03.969Z,6.47
2022-09-28T22:41:32.108Z,8.90
2022-09-28T22:43:59.269Z,7.47
2022-09-28T22:46:29.816Z,7.97
2022-09-28T22:48:58.829Z,7.17
2022-09-28T22:51:31.844Z,6.97
2022-09-28T22:53:58.975Z,7.37
2022-09-28T22:56:26.182Z,8.67
2022-09-28T22:58:53.353Z,8.13
2022-09-28T23:01:34.163Z,6.73
2022-09-28T23:04:01.603Z,8.10
2022-09-28T23:06:30.766Z,7.80
2022-09-28T23:08:57.972Z,7.90
2022-09-28T23:11:25.074Z,7.00
2022-09-28T23:13:54.766Z,8.40
2022-09-28T23:16:24.777Z,7.03
2022-09-28T23:18:55.425Z,7.70
2022-09-28T23:21:26.268Z,8.00
2022-09-28T23:23:58.993Z,7.73
2022-09-28T23:26:30.978Z,8.43
2022-09-28T23:28:59.460Z,8.60
2022-09-28T23:31:31.819Z,9.10
2022-09-28T23:34:05.923Z,10.40
2022-09-28T23:36:34.324Z,8.57
2022-09-28T23:39:01.384Z,9.30
2022-09-28T23:41:28.646Z,8.40
2022-09-28T23:43:55.836Z,8.13
2022-09-28T23:46:23.154Z,7.93
2022-09-28T23:48:50.404Z,10.83
2022-09-28T23:51:17.335Z,10.57
2022-09-28T23:53:44.579Z,8.47
2022-09-28T23:56:12.365Z,8.60
2022-09-28T23:58:39.213Z,11.23
